sensor_id;sensor_type;location;lat;lon;timestamp;temperature;humidity
20858;DHT22;10589;53.636;10.012;2023-06-19T03:45:07;19.80;99.90
20858;DHT22;10589;53.636;10.012;2023-06-19T03:47:34;19.80;99.90
20858;DHT22;10589;53.636;10.012;2023-06-19T03:50:00;19.80;99.90
20858;DHT22;10589;53.636;10.012;2023-06-19T03:52:25;19.80;99.90
20858;DHT22;10589;53.636;10.012;2023-06-19T03:54:51;19.80;99.90
20858;DHT22;10589;53.636;10.012;2023-06-19T03:57:16;19.70;99.90
20858;DHT22;10589;53.636;10.012;2023-06-19T03:59:42;19.70;99.90
20858;DHT22;10589;53.636;10.012;2023-06-19T04:02:07;19.70;99.90
20858;DHT22;10589;53.636;10.012;2023-06-19T04:04:33;19.70;99.90
20858;DHT22;10589;53.636;10.012;2023-06-19T04:06:59;19.70;99.90
20858;DHT22;10589;53.636;10.012;2023-06-19T04:09:25;19.70;99.90
20858;DHT22;10589;53.636;10.012;2023-06-19T04:11:50;19.70;99.90
20858;DHT22;10589;53.636;10.012;2023-06-19T04:14:16;19.60;99.90
20858;DHT22;10589;53.636;10.012;2023-06-19T04:16:42;19.60;99.90
20858;DHT22;10589;53.636;10.012;2023-06-19T04:19:07;19.60;99.90
20858;DHT22;10589;53.636;10.012;2023-06-19T04:21:33;19.60;99.90
20858;DHT22;10589;53.636;10.012;2023-06-19T04:23:59;19.60;99.90
20858;DHT22;10589;53.636;10.012;2023-06-19T04:26:25;19.60;99.90
20858;DHT22;10589;53.636;10.012;2023-06-19T04:28:50;19.60;99.90
20858;DHT22;10589;53.636;10.012;2023-06-19T04:31:16;19.60;99.90
20858;DHT22;10589;53.636;10.012;2023-06-19T04:33:45;19.60;99.90
20858;DHT22;10589;53.636;10.012;2023-06-19T04:36:10;19.60;99.90
20858;DHT22;10589;53.636;10.012;2023-06-19T04:38:36;19.60;99.90
20858;DHT22;10589;53.636;10.012;2023-06-19T04:41:02;19.60;99.90
20858;DHT22;10589;53.636;10.012;2023-06-19T04:43:27;19.60;99.90
20858;DHT22;10589;53.636;10.012;2023-06-19T04:45:53;19.60;99.90
20858;DHT22;10589;53.636;10.012;2023-06-19T04:48:19;19.50;99.90
20858;DHT22;10589;53.636;10.012;2023-06-19T04:50:44;19.50;99.90
20858;DHT22;10589;53.636;10.012;2023-06-19T04:53:10;19.50;99.90
20858;DHT22;10589;53.636;10.012;2023-06-19T04:55:35;19.50;99.90
20858;DHT22;10589;53.636;10.012;2023-06-19T04:58:01;19.50;99.90
20858;DHT22;10589;53.636;10.012;2023-06-19T05:00:27;19.50;99.90
20858;DHT22;10589;53.636;10.012;2023-06-19T05:02:52;19.50;99.90
20858;DHT22;10589;53.636;10.012;2023-06-19T05:05:18;19.50;99.90
20858;DHT22;10589;53.636;10.012;2023-06-19T05:07:44;19.50;99.90
20858;DHT22;10589;53.636;10.012;2023-06-19T05:10:10;19.50;99.90
20858;DHT22;10589;53.636;10.012;2023-06-19T05:12:36;19.50;99.90
20858;DHT22;10589;53.636;10.012;2023-06-19T05:15:02;19.50;99.90
20858;DHT22;10589;53.636;10.012;2023-06-19T05:17:28;19.60;99.90
20858;DHT22;10589;53.636;10.012;2023-06-19T05:19:53;19.50;99.90
20858;DHT22;10589;53.636;10.012;2023-06-19T05:22:19;19.50;99.90
20858;DHT22;10589;53.636;10.012;2023-06-19T05:24:47;19.60;99.90
20858;DHT22;10589;53.636;10.012;2023-06-19T05:27:13;19.60;99.90
20858;DHT22;10589;53.636;10.012;2023-06-19T05:29:38;19.60;99.90
20858;DHT22;10589;53.636;10.012;2023-06-19T05:32:04;19.60;99.90
20858;DHT22;10589;53.636;10.012;2023-06-19T05:34:30;19.60;99.90
20858;DHT22;10589;53.636;10.012;2023-06-19T05:36:55;19.60;99.90
20858;DHT22;10589;53.636;10.012;2023-06-19T05:39:21;19.60;99.90
20858;DHT22;10589;53.636;10.012;2023-06-19T05:41:47;19.60;99.90
20858;DHT22;10589;53.636;10.012;2023-06-19T05:44:12;19.70;99.90
20858;DHT22;10589;53.636;10.012;2023-06-19T05:46:41;19.70;99.90
20858;DHT22;10589;53.636;10.012;2023-06-19T05:49:08;19.70;99.90
20858;DHT22;10589;53.636;10.012;2023-06-19T05:51:34;19.70;99.90
20858;DHT22;10589;53.636;10.012;2023-06-19T05:53:59;19.70;99.90
20858;DHT22;10589;53.636;10.012;2023-06-19T05:56:30;19.70;99.90
20858;DHT22;10589;53.636;10.012;2023-06-19T05:58:56;19.70;99.90
20858;DHT22;10589;53.636;10.012;2023-06-19T06:01:21;19.70;99.90
20858;DHT22;10589;53.636;10.012;2023-06-19T06:03:47;19.70;99.90
20858;DHT22;10589;53.636;10.012;2023-06-19T06:06:12;19.80;99.90
20858;DHT22;10589;53.636;10.012;2023-06-19T06:08:38;19.90;99.90
20858;DHT22;10589;53.636;10.012;2023-06-19T06:11:04;20.00;99.90
20858;DHT22;10589;53.636;10.012;2023-06-19T06:13:29;20.10;99.90
20858;DHT22;10589;53.636;10.012;2023-06-19T06:15:55;20.20;99.90
20858;DHT22;10589;53.636;10.012;2023-06-19T06:18:21;20.20;99.90
20858;DHT22;10589;53.636;10.012;2023-06-19T06:20:46;20.30;99.90
20858;DHT22;10589;53.636;10.012;2023-06-19T06:23:12;20.30;99.90
20858;DHT22;10589;53.636;10.012;2023-06-19T06:25:37;20.30;99.90
20858;DHT22;10589;53.636;10.012;2023-06-19T06:28:03;20.30;99.90
20858;DHT22;10589;53.636;10.012;2023-06-19T06:30:29;20.40;99.90
20858;DHT22;10589;53.636;10.012;2023-06-19T06:32:54;20.30;99.90
20858;DHT22;10589;53.636;10.012;2023-06-19T06:35:20;20.20;99.90
20858;DHT22;10589;53.636;10.012;2023-06-19T06:37:46;20.20;99.90
20858;DHT22;10589;53.636;10.012;2023-06-19T06:40:15;20.10;99.90
20858;DHT22;10589;53.636;10.012;2023-06-19T06:42:40;20.00;99.90
20858;DHT22;10589;53.636;10.012;2023-06-19T06:45:07;20.00;99.90
20858;DHT22;10589;53.636;10.012;2023-06-19T06:47:34;20.00;99.90
20858;DHT22;10589;53.636;10.012;2023-06-19T06:50:00;20.00;99.90
20858;DHT22;10589;53.636;10.012;2023-06-19T06:52:25;20.10;99.90
20858;DHT22;10589;53.636;10.012;2023-06-19T06:54:51;20.20;99.90
20858;DHT22;10589;53.636;10.012;2023-06-19T06:57:17;20.20;99.90
20858;DHT22;10589;53.636;10.012;2023-06-19T06:59:42;20.30;99.90
20858;DHT22;10589;53.636;10.012;2023-06-19T07:02:08;20.20;99.90
20858;DHT22;10589;53.636;10.012;2023-06-19T07:04:33;20.10;99.90
20858;DHT22;10589;53.636;10.012;2023-06-19T07:06:59;20.00;99.90
20858;DHT22;10589;53.636;10.012;2023-06-19T07:09:25;19.90;99.90
20858;DHT22;10589;53.636;10.012;2023-06-19T07:11:50;20.00;99.90
20858;DHT22;10589;53.636;10.012;2023-06-19T07:14:16;20.00;99.90
20858;DHT22;10589;53.636;10.012;2023-06-19T07:16:46;20.10;99.90
20858;DHT22;10589;53.636;10.012;2023-06-19T07:19:12;20.30;99.90
20858;DHT22;10589;53.636;10.012;2023-06-19T07:21:38;20.30;99.90
20858;DHT22;10589;53.636;10.012;2023-06-19T07:24:05;20.50;99.90
20858;DHT22;10589;53.636;10.012;2023-06-19T07:26:31;20.50;99.90
20858;DHT22;10589;53.636;10.012;2023-06-19T07:28:57;20.40;99.90
20858;DHT22;10589;53.636;10.012;2023-06-19T07:31:22;20.40;99.90
20858;DHT22;10589;53.636;10.012;2023-06-19T07:33:48;20.40;99.90
20858;DHT22;10589;53.636;10.012;2023-06-19T07:36:14;20.40;99.90
20858;DHT22;10589;53.636;10.012;2023-06-19T07:38:42;20.50;99.90
20858;DHT22;10589;53.636;10.012;2023-06-19T07:41:08;20.50;99.90
20858;DHT22;10589;53.636;10.012;2023-06-19T07:43:35;20.60;99.90
20858;DHT22;10589;53.636;10.012;2023-06-19T07:46:01;20.70;99.90
20858;DHT22;10589;53.636;10.012;2023-06-19T07:48:27;20.60;99.90
20858;DHT22;10589;53.636;10.012;2023-06-19T07:50:53;20.70;99.90
20858;DHT22;10589;53.636;10.012;2023-06-19T07:53:19;20.70;99.90
20858;DHT22;10589;53.636;10.012;2023-06-19T07:55:45;20.90;99.90
20858;DHT22;10589;53.636;10.012;2023-06-19T07:58:11;21.00;99.90
20858;DHT22;10589;53.636;10.012;2023-06-19T08:00:36;21.20;99.90
20858;DHT22;10589;53.636;10.012;2023-06-19T08:03:02;21.10;99.90
20858;DHT22;10589;53.636;10.012;2023-06-19T08:05:30;21.20;99.90
20858;DHT22;10589;53.636;10.012;2023-06-19T08:07:56;21.40;99.90
20858;DHT22;10589;53.636;10.012;2023-06-19T08:10:23;21.50;99.90
20858;DHT22;10589;53.636;10.012;2023-06-19T08:12:50;21.80;99.90
20858;DHT22;10589;53.636;10.012;2023-06-19T08:15:15;22.00;99.90
20858;DHT22;10589;53.636;10.012;2023-06-19T08:17:42;22.00;99.90
20858;DHT22;10589;53.636;10.012;2023-06-19T08:20:08;22.30;99.90
20858;DHT22;10589;53.636;10.012;2023-06-19T08:22:34;22.60;99.90
20858;DHT22;10589;53.636;10.012;2023-06-19T08:24:59;22.40;99.90
20858;DHT22;10589;53.636;10.012;2023-06-19T08:27:25;22.40;99.90
20858;DHT22;10589;53.636;10.012;2023-06-19T08:29:51;22.60;99.90
20858;DHT22;10589;53.636;10.012;2023-06-19T08:32:19;22.90;99.90
20858;DHT22;10589;53.636;10.012;2023-06-19T08:34:44;23.00;99.90
20858;DHT22;10589;53.636;10.012;2023-06-19T08:37:10;23.20;99.90
20858;DHT22;10589;53.636;10.012;2023-06-19T08:39:35;23.10;99.90
20858;DHT22;10589;53.636;10.012;2023-06-19T08:42:05;23.00;99.90
20858;DHT22;10589;53.636;10.012;2023-06-19T08:44:33;23.10;99.90
20858;DHT22;10589;53.636;10.012;2023-06-19T08:46:59;23.40;99.90
20858;DHT22;10589;53.636;10.012;2023-06-19T08:49:25;23.40;99.90
20858;DHT22;10589;53.636;10.012;2023-06-19T08:51:50;23.60;99.90
20858;DHT22;10589;53.636;10.012;2023-06-19T08:54:17;23.90;99.90
20858;DHT22;10589;53.636;10.012;2023-06-19T08:56:43;24.30;99.90
20858;DHT22;10589;53.636;10.012;2023-06-19T08:59:14;24.40;99.90
20858;DHT22;10589;53.636;10.012;2023-06-19T09:01:45;24.30;99.90
20858;DHT22;10589;53.636;10.012;2023-06-19T09:04:18;24.50;99.90
20858;DHT22;10589;53.636;10.012;2023-06-19T09:06:51;24.60;99.90
20858;DHT22;10589;53.636;10.012;2023-06-19T09:09:19;24.90;99.90
20858;DHT22;10589;53.636;10.012;2023-06-19T09:12:06;25.20;99.90
20858;DHT22;10589;53.636;10.012;2023-06-19T09:14:36;25.10;99.90
20858;DHT22;10589;53.636;10.012;2023-06-19T09:17:03;25.10;99.90
20858;DHT22;10589;53.636;10.012;2023-06-19T09:19:29;25.30;99.90
20858;DHT22;10589;53.636;10.012;2023-06-19T09:22:06;25.60;99.90
20858;DHT22;10589;53.636;10.012;2023-06-19T09:24:37;25.70;99.90
20858;DHT22;10589;53.636;10.012;2023-06-19T09:29:36;26.10;99.90
20858;DHT22;10589;53.636;10.012;2023-06-19T09:32:14;26.30;99.90
20858;DHT22;10589;53.636;10.012;2023-06-19T09:34:40;26.40;99.90
20858;DHT22;10589;53.636;10.012;2023-06-19T09:37:07;26.70;99.90
20858;DHT22;10589;53.636;10.012;2023-06-19T09:39:34;26.90;99.90
20858;DHT22;10589;53.636;10.012;2023-06-19T09:42:03;27.00;99.90
20858;DHT22;10589;53.636;10.012;2023-06-19T09:44:31;27.30;99.90
20858;DHT22;10589;53.636;10.012;2023-06-19T09:47:03;27.40;99.90
20858;DHT22;10589;53.636;10.012;2023-06-19T09:49:34;27.50;99.90
20858;DHT22;10589;53.636;10.012;2023-06-19T09:52:01;27.60;99.90
20858;DHT22;10589;53.636;10.012;2023-06-19T09:54:28;27.70;99.90
20858;DHT22;10589;53.636;10.012;2023-06-19T09:56:56;27.70;99.90
20858;DHT22;10589;53.636;10.012;2023-06-19T09:59:24;27.60;99.90
20858;DHT22;10589;53.636;10.012;2023-06-19T10:01:50;27.70;99.90
20858;DHT22;10589;53.636;10.012;2023-06-19T10:04:17;27.60;99.90
20858;DHT22;10589;53.636;10.012;2023-06-19T10:06:45;27.80;99.90
20858;DHT22;10589;53.636;10.012;2023-06-19T10:09:11;27.50;99.90
20858;DHT22;10589;53.636;10.012;2023-06-19T10:11:52;27.50;99.90
20858;DHT22;10589;53.636;10.012;2023-06-19T10:14:22;27.70;99.90
20858;DHT22;10589;53.636;10.012;2023-06-19T10:16:48;27.90;99.90
20858;DHT22;10589;53.636;10.012;2023-06-19T10:19:15;27.80;99.90
20858;DHT22;10589;53.636;10.012;2023-06-19T10:21:46;28.00;99.90
20858;DHT22;10589;53.636;10.012;2023-06-19T10:24:17;28.10;99.90
20858;DHT22;10589;53.636;10.012;2023-06-19T10:26:55;28.30;99.90
20858;DHT22;10589;53.636;10.012;2023-06-19T10:29:23;28.30;99.90
20858;DHT22;10589;53.636;10.012;2023-06-19T10:31:50;28.30;99.90
20858;DHT22;10589;53.636;10.012;2023-06-19T10:34:15;28.40;99.90
20858;DHT22;10589;53.636;10.012;2023-06-19T10:36:41;28.10;99.90
20858;DHT22;10589;53.636;10.012;2023-06-19T10:39:06;28.00;99.90
20858;DHT22;10589;53.636;10.012;2023-06-19T10:41:32;27.60;99.90
20858;DHT22;10589;53.636;10.012;2023-06-19T10:46:29;27.70;99.90
20858;DHT22;10589;53.636;10.012;2023-06-19T10:48:55;27.60;99.90
20858;DHT22;10589;53.636;10.012;2023-06-19T10:51:29;27.90;99.90
20858;DHT22;10589;53.636;10.012;2023-06-19T10:53:56;28.10;99.90
20858;DHT22;10589;53.636;10.012;2023-06-19T10:56:23;28.70;99.90
20858;DHT22;10589;53.636;10.012;2023-06-19T10:58:55;29.30;99.90
20858;DHT22;10589;53.636;10.012;2023-06-19T11:01:22;29.40;99.90
20858;DHT22;10589;53.636;10.012;2023-06-19T11:03:48;29.80;99.90
20858;DHT22;10589;53.636;10.012;2023-06-19T11:06:20;29.80;99.90
20858;DHT22;10589;53.636;10.012;2023-06-19T11:08:51;29.40;99.90
20858;DHT22;10589;53.636;10.012;2023-06-19T11:11:18;29.40;99.90
20858;DHT22;10589;53.636;10.012;2023-06-19T11:13:43;29.00;99.90
20858;DHT22;10589;53.636;10.012;2023-06-19T11:16:10;29.00;99.90
20858;DHT22;10589;53.636;10.012;2023-06-19T11:18:36;29.00;99.90
20858;DHT22;10589;53.636;10.012;2023-06-19T11:21:01;29.00;99.90
20858;DHT22;10589;53.636;10.012;2023-06-19T11:23:29;29.20;99.90
20858;DHT22;10589;53.636;10.012;2023-06-19T11:26:05;29.50;99.90
20858;DHT22;10589;53.636;10.012;2023-06-19T11:28:31;29.60;99.90
20858;DHT22;10589;53.636;10.012;2023-06-19T11:30:59;29.80;99.90
20858;DHT22;10589;53.636;10.012;2023-06-19T11:33:24;29.80;99.90
20858;DHT22;10589;53.636;10.012;2023-06-19T11:35:54;30.10;99.90
20858;DHT22;10589;53.636;10.012;2023-06-19T11:38:24;30.40;99.90
20858;DHT22;10589;53.636;10.012;2023-06-19T11:40:50;30.80;99.90
20858;DHT22;10589;53.636;10.012;2023-06-19T11:43:30;30.90;99.90
20858;DHT22;10589;53.636;10.012;2023-06-19T11:46:03;31.00;99.90
20858;DHT22;10589;53.636;10.012;2023-06-19T11:48:29;31.20;99.90
20858;DHT22;10589;53.636;10.012;2023-06-19T11:50:55;31.30;99.90
20858;DHT22;10589;53.636;10.012;2023-06-19T11:53:21;31.20;99.90
20858;DHT22;10589;53.636;10.012;2023-06-19T11:55:47;31.00;99.90
20858;DHT22;10589;53.636;10.012;2023-06-19T11:58:13;30.60;99.90
20858;DHT22;10589;53.636;10.012;2023-06-19T12:00:41;30.70;99.90
20858;DHT22;10589;53.636;10.012;2023-06-19T12:03:07;30.80;99.90
20858;DHT22;10589;53.636;10.012;2023-06-19T12:05:32;30.80;99.90
20858;DHT22;10589;53.636;10.012;2023-06-19T12:07:58;31.40;99.90
20858;DHT22;10589;53.636;10.012;2023-06-19T12:10:27;31.50;99.90
20858;DHT22;10589;53.636;10.012;2023-06-19T12:12:53;31.60;99.90
20858;DHT22;10589;53.636;10.012;2023-06-19T12:15:19;31.60;99.90
20858;DHT22;10589;53.636;10.012;2023-06-19T12:17:45;31.40;99.90
20858;DHT22;10589;53.636;10.012;2023-06-19T12:20:12;31.30;99.90
20858;DHT22;10589;53.636;10.012;2023-06-19T12:22:39;31.10;99.90
20858;DHT22;10589;53.636;10.012;2023-06-19T12:25:05;30.90;99.90
20858;DHT22;10589;53.636;10.012;2023-06-19T12:27:30;30.30;99.90
20858;DHT22;10589;53.636;10.012;2023-06-19T12:29:56;29.80;99.90
20858;DHT22;10589;53.636;10.012;2023-06-19T12:32:22;29.50;99.90
20858;DHT22;10589;53.636;10.012;2023-06-19T12:34:47;29.40;99.90
20858;DHT22;10589;53.636;10.012;2023-06-19T12:37:16;29.40;99.90
20858;DHT22;10589;53.636;10.012;2023-06-19T12:39:43;29.80;99.90
20858;DHT22;10589;53.636;10.012;2023-06-19T12:42:09;30.10;99.90
20858;DHT22;10589;53.636;10.012;2023-06-19T12:44:39;30.10;99.90
20858;DHT22;10589;53.636;10.012;2023-06-19T12:47:05;30.20;99.90
20858;DHT22;10589;53.636;10.012;2023-06-19T12:49:31;30.10;99.90
20858;DHT22;10589;53.636;10.012;2023-06-19T12:51:57;30.00;99.90
20858;DHT22;10589;53.636;10.012;2023-06-19T12:54:23;30.00;99.90
20858;DHT22;10589;53.636;10.012;2023-06-19T12:56:49;29.90;99.90
20858;DHT22;10589;53.636;10.012;2023-06-19T12:59:14;30.00;99.90
20858;DHT22;10589;53.636;10.012;2023-06-19T13:01:41;30.50;99.90
20858;DHT22;10589;53.636;10.012;2023-06-19T13:04:06;30.70;99.90
20858;DHT22;10589;53.636;10.012;2023-06-19T13:06:33;30.60;99.90
20858;DHT22;10589;53.636;10.012;2023-06-19T13:08:59;30.50;99.90
20858;DHT22;10589;53.636;10.012;2023-06-19T13:11:25;30.40;99.90
20858;DHT22;10589;53.636;10.012;2023-06-19T13:13:51;30.20;99.90
20858;DHT22;10589;53.636;10.012;2023-06-19T13:16:16;29.90;99.90
20858;DHT22;10589;53.636;10.012;2023-06-19T13:18:44;30.00;99.90
20858;DHT22;10589;53.636;10.012;2023-06-19T13:21:10;30.50;99.90
20858;DHT22;10589;53.636;10.012;2023-06-19T13:23:36;32.00;99.90
20858;DHT22;10589;53.636;10.012;2023-06-19T13:26:03;33.60;99.90
20858;DHT22;10589;53.636;10.012;2023-06-19T13:28:28;34.60;99.90
20858;DHT22;10589;53.636;10.012;2023-06-19T13:30:54;34.20;99.90
20858;DHT22;10589;53.636;10.012;2023-06-19T13:33:19;33.30;99.90
20858;DHT22;10589;53.636;10.012;2023-06-19T13:35:45;32.40;99.90
20858;DHT22;10589;53.636;10.012;2023-06-19T13:38:11;31.50;99.90
20858;DHT22;10589;53.636;10.012;2023-06-19T13:40:36;30.60;99.90
20858;DHT22;10589;53.636;10.012;2023-06-19T13:43:02;29.70;99.90
20858;DHT22;10589;53.636;10.012;2023-06-19T13:45:29;29.20;99.90
20858;DHT22;10589;53.636;10.012;2023-06-19T13:47:56;29.20;99.90
20858;DHT22;10589;53.636;10.012;2023-06-19T13:50:21;30.60;99.90
20858;DHT22;10589;53.636;10.012;2023-06-19T13:52:49;31.60;99.90
20858;DHT22;10589;53.636;10.012;2023-06-19T13:55:15;33.00;99.90
20858;DHT22;10589;53.636;10.012;2023-06-19T13:57:41;34.60;99.90
20858;DHT22;10589;53.636;10.012;2023-06-19T14:00:08;35.70;99.90
20858;DHT22;10589;53.636;10.012;2023-06-19T14:02:36;36.60;99.90
20858;DHT22;10589;53.636;10.012;2023-06-19T14:05:05;37.00;99.90
20858;DHT22;10589;53.636;10.012;2023-06-19T14:07:32;37.10;99.90
20858;DHT22;10589;53.636;10.012;2023-06-19T14:09:57;36.70;99.90
20858;DHT22;10589;53.636;10.012;2023-06-19T14:12:23;35.80;99.90
20858;DHT22;10589;53.636;10.012;2023-06-19T14:14:49;34.90;99.90
20858;DHT22;10589;53.636;10.012;2023-06-19T14:17:15;34.10;99.90
20858;DHT22;10589;53.636;10.012;2023-06-19T14:19:41;32.80;99.90
20858;DHT22;10589;53.636;10.012;2023-06-19T14:22:06;32.00;99.90
20858;DHT22;10589;53.636;10.012;2023-06-19T14:24:32;31.40;99.90
20858;DHT22;10589;53.636;10.012;2023-06-19T14:26:58;30.60;99.90
20858;DHT22;10589;53.636;10.012;2023-06-19T14:29:23;30.50;99.90
20858;DHT22;10589;53.636;10.012;2023-06-19T14:31:51;30.60;99.90
20858;DHT22;10589;53.636;10.012;2023-06-19T14:34:18;30.60;99.90
20858;DHT22;10589;53.636;10.012;2023-06-19T14:36:43;30.40;99.90
20858;DHT22;10589;53.636;10.012;2023-06-19T14:39:09;30.30;99.90
20858;DHT22;10589;53.636;10.012;2023-06-19T14:41:37;30.20;99.90
20858;DHT22;10589;53.636;10.012;2023-06-19T14:44:03;30.00;99.90
20858;DHT22;10589;53.636;10.012;2023-06-19T14:46:29;30.10;99.90
20858;DHT22;10589;53.636;10.012;2023-06-19T14:48:55;29.90;99.90
20858;DHT22;10589;53.636;10.012;2023-06-19T14:51:20;30.50;99.90
20858;DHT22;10589;53.636;10.012;2023-06-19T14:53:46;31.10;99.90
20858;DHT22;10589;53.636;10.012;2023-06-19T14:56:12;30.90;99.90
20858;DHT22;10589;53.636;10.012;2023-06-19T14:58:37;30.60;99.90
20858;DHT22;10589;53.636;10.012;2023-06-19T15:01:03;30.30;99.90
20858;DHT22;10589;53.636;10.012;2023-06-19T15:03:29;29.80;99.90
20858;DHT22;10589;53.636;10.012;2023-06-19T15:05:54;29.40;99.90
20858;DHT22;10589;53.636;10.012;2023-06-19T15:08:20;30.00;99.90
20858;DHT22;10589;53.636;10.012;2023-06-19T15:10:48;30.10;99.90
20858;DHT22;10589;53.636;10.012;2023-06-19T15:13:14;30.10;99.90
20858;DHT22;10589;53.636;10.012;2023-06-19T15:15:41;30.10;99.90
20858;DHT22;10589;53.636;10.012;2023-06-19T15:18:07;29.80;99.90
20858;DHT22;10589;53.636;10.012;2023-06-19T15:20:33;29.70;99.90
20858;DHT22;10589;53.636;10.012;2023-06-19T15:22:58;29.80;99.90
20858;DHT22;10589;53.636;10.012;2023-06-19T15:25:24;30.30;99.90
20858;DHT22;10589;53.636;10.012;2023-06-19T15:27:49;30.40;99.90
20858;DHT22;10589;53.636;10.012;2023-06-19T15:30:15;30.50;99.90
20858;DHT22;10589;53.636;10.012;2023-06-19T15:32:41;30.80;99.90
20858;DHT22;10589;53.636;10.012;2023-06-19T15:35:07;31.00;99.90
20858;DHT22;10589;53.636;10.012;2023-06-19T15:37:32;31.60;99.90
20858;DHT22;10589;53.636;10.012;2023-06-19T15:39:58;32.10;99.90
20858;DHT22;10589;53.636;10.012;2023-06-19T15:42:23;32.50;99.90
20858;DHT22;10589;53.636;10.012;2023-06-19T15:44:49;32.50;99.90
20858;DHT22;10589;53.636;10.012;2023-06-19T15:47:15;32.60;99.90
20858;DHT22;10589;53.636;10.012;2023-06-19T15:49:40;33.10;99.90
20858;DHT22;10589;53.636;10.012;2023-06-19T15:52:06;33.60;99.90
20858;DHT22;10589;53.636;10.012;2023-06-19T15:54:31;34.00;99.90
20858;DHT22;10589;53.636;10.012;2023-06-19T15:56:57;34.40;99.90
20858;DHT22;10589;53.636;10.012;2023-06-19T15:59:23;35.80;99.90
20858;DHT22;10589;53.636;10.012;2023-06-19T16:01:48;36.90;99.90
20858;DHT22;10589;53.636;10.012;2023-06-19T16:04:14;37.70;99.90
20858;DHT22;10589;53.636;10.012;2023-06-19T16:06:40;37.90;99.90
20858;DHT22;10589;53.636;10.012;2023-06-19T16:09:07;37.00;99.90
20858;DHT22;10589;53.636;10.012;2023-06-19T16:11:32;35.80;99.90
20858;DHT22;10589;53.636;10.012;2023-06-19T16:13:58;36.30;99.90
20858;DHT22;10589;53.636;10.012;2023-06-19T16:16:25;37.40;99.90
20858;DHT22;10589;53.636;10.012;2023-06-19T16:18:51;37.10;99.90
20858;DHT22;10589;53.636;10.012;2023-06-19T16:21:16;36.70;99.90
20858;DHT22;10589;53.636;10.012;2023-06-19T16:23:43;37.90;99.90
20858;DHT22;10589;53.636;10.012;2023-06-19T16:26:08;39.10;99.90
20858;DHT22;10589;53.636;10.012;2023-06-19T16:28:34;39.90;98.10
20858;DHT22;10589;53.636;10.012;2023-06-19T16:31:00;40.20;97.60
20858;DHT22;10589;53.636;10.012;2023-06-19T16:33:26;40.10;97.20
20858;DHT22;10589;53.636;10.012;2023-06-19T16:35:51;39.50;97.40
20858;DHT22;10589;53.636;10.012;2023-06-19T16:38:17;39.30;96.90
20858;DHT22;10589;53.636;10.012;2023-06-19T16:40:43;39.20;97.50
20858;DHT22;10589;53.636;10.012;2023-06-19T16:43:09;38.30;97.60
20858;DHT22;10589;53.636;10.012;2023-06-19T16:45:35;37.60;96.90
20858;DHT22;10589;53.636;10.012;2023-06-19T16:48:00;36.50;97.30
20858;DHT22;10589;53.636;10.012;2023-06-19T16:50:26;35.20;98.50
20858;DHT22;10589;53.636;10.012;2023-06-19T16:52:52;35.20;99.70
20858;DHT22;10589;53.636;10.012;2023-06-19T16:55:17;35.60;98.20
20858;DHT22;10589;53.636;10.012;2023-06-19T16:57:47;35.30;97.70
20858;DHT22;10589;53.636;10.012;2023-06-19T17:00:14;34.60;98.30
20858;DHT22;10589;53.636;10.012;2023-06-19T17:02:39;34.10;99.80
20858;DHT22;10589;53.636;10.012;2023-06-19T17:05:05;34.30;99.10
20858;DHT22;10589;53.636;10.012;2023-06-19T17:07:31;34.10;99.00
20858;DHT22;10589;53.636;10.012;2023-06-19T17:09:57;34.40;99.50
20858;DHT22;10589;53.636;10.012;2023-06-19T17:12:22;34.00;98.70
20858;DHT22;10589;53.636;10.012;2023-06-19T17:14:48;33.50;99.50
20858;DHT22;10589;53.636;10.012;2023-06-19T17:17:14;32.70;99.90
20858;DHT22;10589;53.636;10.012;2023-06-19T17:19:40;31.90;99.90
20858;DHT22;10589;53.636;10.012;2023-06-19T17:22:05;30.80;99.90
20858;DHT22;10589;53.636;10.012;2023-06-19T17:24:31;30.50;99.90
20858;DHT22;10589;53.636;10.012;2023-06-19T17:26:57;29.60;99.90
20858;DHT22;10589;53.636;10.012;2023-06-19T17:29:26;29.00;99.90
20858;DHT22;10589;53.636;10.012;2023-06-19T17:31:55;28.30;99.90
20858;DHT22;10589;53.636;10.012;2023-06-19T17:34:22;28.10;99.90
20858;DHT22;10589;53.636;10.012;2023-06-19T17:36:48;27.80;99.90
20858;DHT22;10589;53.636;10.012;2023-06-19T17:39:13;27.60;99.90
20858;DHT22;10589;53.636;10.012;2023-06-19T17:41:39;27.30;99.90
20858;DHT22;10589;53.636;10.012;2023-06-19T17:44:05;27.20;99.90
20858;DHT22;10589;53.636;10.012;2023-06-19T17:46:31;27.30;99.90
20858;DHT22;10589;53.636;10.012;2023-06-19T17:48:57;27.10;99.90
20858;DHT22;10589;53.636;10.012;2023-06-19T17:51:22;26.80;99.90
20858;DHT22;10589;53.636;10.012;2023-06-19T17:53:50;26.60;99.90
20858;DHT22;10589;53.636;10.012;2023-06-19T17:56:17;26.60;99.90
20858;DHT22;10589;53.636;10.012;2023-06-19T17:58:42;26.40;99.90
20858;DHT22;10589;53.636;10.012;2023-06-19T18:01:08;26.30;99.90
20858;DHT22;10589;53.636;10.012;2023-06-19T18:03:33;26.10;99.90
20858;DHT22;10589;53.636;10.012;2023-06-19T18:05:59;25.90;99.90
20858;DHT22;10589;53.636;10.012;2023-06-19T18:08:25;25.60;99.90
20858;DHT22;10589;53.636;10.012;2023-06-19T18:10:51;25.50;99.90
20858;DHT22;10589;53.636;10.012;2023-06-19T18:13:16;25.50;99.90
20858;DHT22;10589;53.636;10.012;2023-06-19T18:15:42;25.30;99.90
20858;DHT22;10589;53.636;10.012;2023-06-19T18:18:08;25.30;99.90
20858;DHT22;10589;53.636;10.012;2023-06-19T18:20:33;25.20;99.90
20858;DHT22;10589;53.636;10.012;2023-06-19T18:22:59;25.00;99.90
20858;DHT22;10589;53.636;10.012;2023-06-19T18:25:24;24.90;99.90
20858;DHT22;10589;53.636;10.012;2023-06-19T18:27:50;24.80;99.90
20858;DHT22;10589;53.636;10.012;2023-06-19T18:30:15;24.60;99.90
20858;DHT22;10589;53.636;10.012;2023-06-19T18:32:41;24.50;99.90
20858;DHT22;10589;53.636;10.012;2023-06-19T18:35:07;24.40;99.90
20858;DHT22;10589;53.636;10.012;2023-06-19T18:37:33;24.30;99.90
20858;DHT22;10589;53.636;10.012;2023-06-19T18:39:58;24.30;99.90
20858;DHT22;10589;53.636;10.012;2023-06-19T18:42:24;24.20;99.90
20858;DHT22;10589;53.636;10.012;2023-06-19T18:44:52;24.20;99.90
20858;DHT22;10589;53.636;10.012;2023-06-19T18:47:18;24.10;99.90
20858;DHT22;10589;53.636;10.012;2023-06-19T18:49:43;24.10;99.90
20858;DHT22;10589;53.636;10.012;2023-06-19T18:52:09;24.00;99.90
20858;DHT22;10589;53.636;10.012;2023-06-19T18:54:34;23.90;99.90
20858;DHT22;10589;53.636;10.012;2023-06-19T18:57:00;23.80;99.90
20858;DHT22;10589;53.636;10.012;2023-06-19T18:59:25;23.60;99.90